sensor_id;sensor_type;location;lat;lon;timestamp;P1;durP1;ratioP1;P2;durP2;ratioP2
3293;SDS011;1659;51.470;6.770;2022-11-23T00:01:16;7.77;;;3.57;;
3293;SDS011;1659;51.470;6.770;2022-11-23T00:03:45;5.53;;;3.70;;
3293;SDS011;1659;51.470;6.770;2022-11-23T00:06:12;7.90;;;2.93;;
3293;SDS011;1659;51.470;6.770;2022-11-23T00:08:40;7.40;;;3.37;;
3293;SDS011;1659;51.470;6.770;2022-11-23T00:11:06;7.33;;;3.20;;
3293;SDS011;1659;51.470;6.770;2022-11-23T00:13:33;4.90;;;3.20;;
3293;SDS011;1659;51.470;6.770;2022-11-23T00:16:01;6.13;;;3.63;;
3293;SDS011;1659;51.470;6.770;2022-11-23T00:18:30;4.63;;;2.63;;
3293;SDS011;1659;51.470;6.770;2022-11-23T00:20:56;10.17;;;3.23;;
3293;SDS011;1659;51.470;6.770;2022-11-23T00:23:23;12.27;;;3.27;;
3293;SDS011;1659;51.470;6.770;2022-11-23T00:25:49;2.27;;;2.07;;
3293;SDS011;1659;51.470;6.770;2022-11-23T00:28:16;4.30;;;3.07;;
3293;SDS011;1659;51.470;6.770;2022-11-23T00:30:46;5.17;;;3.20;;
3293;SDS011;1659;51.470;6.770;2022-11-23T00:33:15;7.70;;;4.13;;
3293;SDS011;1659;51.470;6.770;2022-11-23T00:35:42;7.93;;;3.13;;
3293;SDS011;1659;51.470;6.770;2022-11-23T00:38:08;6.70;;;3.20;;
3293;SDS011;1659;51.470;6.770;2022-11-23T00:40:35;7.37;;;2.77;;
3293;SDS011;1659;51.470;6.770;2022-11-23T00:43:02;7.73;;;3.90;;
3293;SDS011;1659;51.470;6.770;2022-11-23T00:45:28;7.67;;;3.83;;
3293;SDS011;1659;51.470;6.770;2022-11-23T00:47:55;4.00;;;3.03;;
3293;SDS011;1659;51.470;6.770;2022-11-23T00:50:23;8.20;;;3.93;;
3293;SDS011;1659;51.470;6.770;2022-11-23T00:52:49;12.43;;;3.60;;
3293;SDS011;1659;51.470;6.770;2022-11-23T00:55:16;11.13;;;4.00;;
3293;SDS011;1659;51.470;6.770;2022-11-23T00:57:42;6.20;;;3.30;;
3293;SDS011;1659;51.470;6.770;2022-11-23T01:00:09;6.33;;;3.50;;
3293;SDS011;1659;51.470;6.770;2022-11-23T01:02:37;7.03;;;3.47;;
3293;SDS011;1659;51.470;6.770;2022-11-23T01:05:04;10.53;;;4.50;;
3293;SDS011;1659;51.470;6.770;2022-11-23T01:07:32;9.60;;;4.57;;
3293;SDS011;1659;51.470;6.770;2022-11-23T01:09:59;10.20;;;4.07;;
3293;SDS011;1659;51.470;6.770;2022-11-23T01:12:26;9.30;;;4.10;;
3293;SDS011;1659;51.470;6.770;2022-11-23T01:14:54;6.97;;;3.50;;
3293;SDS011;1659;51.470;6.770;2022-11-23T01:17:20;5.80;;;4.53;;
3293;SDS011;1659;51.470;6.770;2022-11-23T01:19:47;12.43;;;4.13;;
3293;SDS011;1659;51.470;6.770;2022-11-23T01:22:13;10.53;;;3.90;;
3293;SDS011;1659;51.470;6.770;2022-11-23T01:24:41;7.90;;;3.13;;
3293;SDS011;1659;51.470;6.770;2022-11-23T01:27:08;12.20;;;4.37;;
3293;SDS011;1659;51.470;6.770;2022-11-23T01:29:35;14.13;;;3.80;;
3293;SDS011;1659;51.470;6.770;2022-11-23T01:32:01;10.27;;;4.53;;
3293;SDS011;1659;51.470;6.770;2022-11-23T01:34:28;12.27;;;5.00;;
3293;SDS011;1659;51.470;6.770;2022-11-23T01:36:54;9.47;;;5.30;;
3293;SDS011;1659;51.470;6.770;2022-11-23T01:39:21;7.93;;;5.20;;
3293;SDS011;1659;51.470;6.770;2022-11-23T01:41:49;14.63;;;7.80;;
3293;SDS011;1659;51.470;6.770;2022-11-23T01:44:20;15.70;;;8.33;;
3293;SDS011;1659;51.470;6.770;2022-11-23T01:46:48;23.17;;;8.43;;
3293;SDS011;1659;51.470;6.770;2022-11-23T01:49:15;23.03;;;8.57;;
3293;SDS011;1659;51.470;6.770;2022-11-23T01:51:43;19.40;;;8.30;;
3293;SDS011;1659;51.470;6.770;2022-11-23T01:54:12;25.20;;;8.90;;
3293;SDS011;1659;51.470;6.770;2022-11-23T01:56:42;19.80;;;8.50;;
3293;SDS011;1659;51.470;6.770;2022-11-23T01:59:13;21.50;;;9.47;;
3293;SDS011;1659;51.470;6.770;2022-11-23T02:01:42;24.07;;;9.60;;
3293;SDS011;1659;51.470;6.770;2022-11-23T02:04:10;29.97;;;11.00;;
3293;SDS011;1659;51.470;6.770;2022-11-23T02:06:42;22.90;;;11.27;;
3293;SDS011;1659;51.470;6.770;2022-11-23T02:09:11;25.07;;;10.30;;
3293;SDS011;1659;51.470;6.770;2022-11-23T02:11:39;34.27;;;11.33;;
3293;SDS011;1659;51.470;6.770;2022-11-23T02:14:06;25.13;;;8.57;;
3293;SDS011;1659;51.470;6.770;2022-11-23T02:16:34;20.47;;;8.17;;
3293;SDS011;1659;51.470;6.770;2022-11-23T02:19:02;28.27;;;7.30;;
3293;SDS011;1659;51.470;6.770;2022-11-23T02:21:31;33.73;;;9.20;;
3293;SDS011;1659;51.470;6.770;2022-11-23T02:23:58;26.37;;;8.53;;
3293;SDS011;1659;51.470;6.770;2022-11-23T02:26:30;25.77;;;9.80;;
3293;SDS011;1659;51.470;6.770;2022-11-23T02:28:59;23.47;;;8.97;;
3293;SDS011;1659;51.470;6.770;2022-11-23T02:31:30;21.67;;;6.80;;
3293;SDS011;1659;51.470;6.770;2022-11-23T02:33:56;14.00;;;7.70;;
3293;SDS011;1659;51.470;6.770;2022-11-23T02:36:33;20.93;;;8.90;;
3293;SDS011;1659;51.470;6.770;2022-11-23T02:39:03;26.40;;;9.97;;
3293;SDS011;1659;51.470;6.770;2022-11-23T02:41:35;21.77;;;8.63;;
3293;SDS011;1659;51.470;6.770;2022-11-23T02:44:03;27.57;;;10.50;;
3293;SDS011;1659;51.470;6.770;2022-11-23T02:46:35;24.13;;;8.40;;
3293;SDS011;1659;51.470;6.770;2022-11-23T02:49:01;18.93;;;7.80;;
3293;SDS011;1659;51.470;6.770;2022-11-23T02:51:28;24.37;;;7.93;;
3293;SDS011;1659;51.470;6.770;2022-11-23T02:53:54;18.07;;;7.50;;
3293;SDS011;1659;51.470;6.770;2022-11-23T02:56:21;23.10;;;6.20;;
3293;SDS011;1659;51.470;6.770;2022-11-23T02:58:49;19.43;;;5.67;;
3293;SDS011;1659;51.470;6.770;2022-11-23T03:01:15;10.63;;;5.60;;
3293;SDS011;1659;51.470;6.770;2022-11-23T03:03:42;11.60;;;6.73;;
3293;SDS011;1659;51.470;6.770;2022-11-23T03:06:08;16.13;;;5.90;;
3293;SDS011;1659;51.470;6.770;2022-11-23T03:08:35;17.83;;;5.93;;
3293;SDS011;1659;51.470;6.770;2022-11-23T03:11:01;17.90;;;4.70;;
3293;SDS011;1659;51.470;6.770;2022-11-23T03:13:28;15.40;;;5.83;;
3293;SDS011;1659;51.470;6.770;2022-11-23T03:15:56;13.97;;;5.47;;
3293;SDS011;1659;51.470;6.770;2022-11-23T03:18:22;15.40;;;4.93;;
3293;SDS011;1659;51.470;6.770;2022-11-23T03:20:50;11.20;;;5.07;;
3293;SDS011;1659;51.470;6.770;2022-11-23T03:23:17;9.10;;;5.07;;
3293;SDS011;1659;51.470;6.770;2022-11-23T03:25:43;9.53;;;4.60;;
3293;SDS011;1659;51.470;6.770;2022-11-23T03:28:10;13.30;;;6.73;;
3293;SDS011;1659;51.470;6.770;2022-11-23T03:30:36;10.30;;;4.13;;
3293;SDS011;1659;51.470;6.770;2022-11-23T03:33:04;14.17;;;5.80;;
3293;SDS011;1659;51.470;6.770;2022-11-23T03:35:31;16.53;;;5.80;;
3293;SDS011;1659;51.470;6.770;2022-11-23T03:37:57;10.37;;;5.00;;
3293;SDS011;1659;51.470;6.770;2022-11-23T03:40:24;15.73;;;5.60;;
3293;SDS011;1659;51.470;6.770;2022-11-23T03:42:50;14.03;;;5.77;;
3293;SDS011;1659;51.470;6.770;2022-11-23T03:45:17;15.83;;;5.50;;
3293;SDS011;1659;51.470;6.770;2022-11-23T03:47:43;8.37;;;5.07;;
3293;SDS011;1659;51.470;6.770;2022-11-23T03:50:11;13.33;;;4.10;;
3293;SDS011;1659;51.470;6.770;2022-11-23T03:52:38;8.77;;;4.13;;
3293;SDS011;1659;51.470;6.770;2022-11-23T03:55:05;12.33;;;4.03;;
3293;SDS011;1659;51.470;6.770;2022-11-23T03:57:32;8.73;;;4.10;;
3293;SDS011;1659;51.470;6.770;2022-11-23T03:59:58;8.73;;;3.20;;
3293;SDS011;1659;51.470;6.770;2022-11-23T04:02:25;5.97;;;3.10;;
3293;SDS011;1659;51.470;6.770;2022-11-23T04:04:51;6.03;;;3.20;;
3293;SDS011;1659;51.470;6.770;2022-11-23T04:07:19;9.50;;;3.40;;
3293;SDS011;1659;51.470;6.770;2022-11-23T04:09:46;8.67;;;4.07;;
3293;SDS011;1659;51.470;6.770;2022-11-23T04:12:12;13.87;;;4.27;;
3293;SDS011;1659;51.470;6.770;2022-11-23T04:14:39;11.33;;;3.60;;
3293;SDS011;1659;51.470;6.770;2022-11-23T04:17:05;10.50;;;3.80;;
3293;SDS011;1659;51.470;6.770;2022-11-23T04:19:32;8.70;;;3.43;;
3293;SDS011;1659;51.470;6.770;2022-11-23T04:21:58;11.73;;;3.70;;
3293;SDS011;1659;51.470;6.770;2022-11-23T04:24:26;10.07;;;3.53;;
3293;SDS011;1659;51.470;6.770;2022-11-23T04:26:53;7.87;;;4.43;;
3293;SDS011;1659;51.470;6.770;2022-11-23T04:29:19;10.00;;;4.00;;
3293;SDS011;1659;51.470;6.770;2022-11-23T04:31:46;14.47;;;4.80;;
3293;SDS011;1659;51.470;6.770;2022-11-23T04:34:12;13.37;;;4.57;;
3293;SDS011;1659;51.470;6.770;2022-11-23T04:36:39;7.07;;;4.40;;
3293;SDS011;1659;51.470;6.770;2022-11-23T04:39:05;9.40;;;3.43;;
3293;SDS011;1659;51.470;6.770;2022-11-23T04:41:33;12.03;;;4.00;;
3293;SDS011;1659;51.470;6.770;2022-11-23T04:44:00;8.33;;;3.90;;
3293;SDS011;1659;51.470;6.770;2022-11-23T04:46:26;12.03;;;5.00;;
3293;SDS011;1659;51.470;6.770;2022-11-23T04:48:53;15.37;;;4.40;;
3293;SDS011;1659;51.470;6.770;2022-11-23T04:51:20;9.90;;;4.10;;
3293;SDS011;1659;51.470;6.770;2022-11-23T04:53:46;10.97;;;4.00;;
3293;SDS011;1659;51.470;6.770;2022-11-23T04:56:13;8.50;;;4.37;;
3293;SDS011;1659;51.470;6.770;2022-11-23T04:58:41;8.30;;;4.13;;
3293;SDS011;1659;51.470;6.770;2022-11-23T05:01:08;9.40;;;3.53;;
3293;SDS011;1659;51.470;6.770;2022-11-23T05:03:34;14.67;;;4.13;;
3293;SDS011;1659;51.470;6.770;2022-11-23T05:06:01;7.77;;;3.63;;
3293;SDS011;1659;51.470;6.770;2022-11-23T05:08:28;12.23;;;3.33;;
3293;SDS011;1659;51.470;6.770;2022-11-23T05:10:56;12.00;;;3.47;;
3293;SDS011;1659;51.470;6.770;2022-11-23T05:13:23;5.60;;;3.70;;
3293;SDS011;1659;51.470;6.770;2022-11-23T05:15:51;11.20;;;3.60;;
3293;SDS011;1659;51.470;6.770;2022-11-23T05:18:17;8.90;;;3.50;;
3293;SDS011;1659;51.470;6.770;2022-11-23T05:20:44;8.90;;;3.70;;
3293;SDS011;1659;51.470;6.770;2022-11-23T05:23:10;9.43;;;3.60;;
3293;SDS011;1659;51.470;6.770;2022-11-23T05:25:37;5.93;;;3.17;;
3293;SDS011;1659;51.470;6.770;2022-11-23T05:28:04;11.60;;;3.57;;
3293;SDS011;1659;51.470;6.770;2022-11-23T05:30:30;9.00;;;3.60;;
3293;SDS011;1659;51.470;6.770;2022-11-23T05:33:00;6.17;;;3.87;;
3293;SDS011;1659;51.470;6.770;2022-11-23T05:35:26;10.30;;;4.20;;
3293;SDS011;1659;51.470;6.770;2022-11-23T05:37:53;11.67;;;3.70;;
3293;SDS011;1659;51.470;6.770;2022-11-23T05:40:20;9.40;;;3.33;;
3293;SDS011;1659;51.470;6.770;2022-11-23T05:42:46;13.00;;;4.27;;
3293;SDS011;1659;51.470;6.770;2022-11-23T05:45:13;16.60;;;3.37;;
3293;SDS011;1659;51.470;6.770;2022-11-23T05:47:40;11.63;;;3.60;;
3293;SDS011;1659;51.470;6.770;2022-11-23T05:50:08;8.60;;;4.00;;
3293;SDS011;1659;51.470;6.770;2022-11-23T05:52:35;9.50;;;3.10;;
3293;SDS011;1659;51.470;6.770;2022-11-23T05:55:01;9.70;;;3.40;;
3293;SDS011;1659;51.470;6.770;2022-11-23T05:57:28;8.53;;;3.57;;
3293;SDS011;1659;51.470;6.770;2022-11-23T05:59:55;12.27;;;3.80;;
3293;SDS011;1659;51.470;6.770;2022-11-23T06:02:21;11.63;;;4.13;;
3293;SDS011;1659;51.470;6.770;2022-11-23T06:04:48;6.67;;;3.10;;
3293;SDS011;1659;51.470;6.770;2022-11-23T06:07:16;8.40;;;3.17;;
3293;SDS011;1659;51.470;6.770;2022-11-23T06:09:42;23.23;;;4.53;;
3293;SDS011;1659;51.470;6.770;2022-11-23T06:12:09;12.27;;;3.30;;
3293;SDS011;1659;51.470;6.770;2022-11-23T06:14:35;7.60;;;3.70;;
3293;SDS011;1659;51.470;6.770;2022-11-23T06:17:02;17.33;;;4.40;;
3293;SDS011;1659;51.470;6.770;2022-11-23T06:19:28;10.30;;;3.30;;
3293;SDS011;1659;51.470;6.770;2022-11-23T06:21:55;8.70;;;3.40;;
3293;SDS011;1659;51.470;6.770;2022-11-23T06:24:23;6.53;;;3.33;;
3293;SDS011;1659;51.470;6.770;2022-11-23T06:26:50;12.63;;;3.90;;
3293;SDS011;1659;51.470;6.770;2022-11-23T06:29:17;16.63;;;4.37;;
3293;SDS011;1659;51.470;6.770;2022-11-23T06:31:44;10.03;;;3.20;;
3293;SDS011;1659;51.470;6.770;2022-11-23T06:34:11;14.20;;;3.60;;
3293;SDS011;1659;51.470;6.770;2022-11-23T06:36:38;6.53;;;4.07;;
3293;SDS011;1659;51.470;6.770;2022-11-23T06:39:04;12.10;;;4.07;;
3293;SDS011;1659;51.470;6.770;2022-11-23T06:41:32;17.10;;;5.10;;
3293;SDS011;1659;51.470;6.770;2022-11-23T06:43:59;5.47;;;3.63;;
3293;SDS011;1659;51.470;6.770;2022-11-23T06:46:25;6.87;;;3.83;;
3293;SDS011;1659;51.470;6.770;2022-11-23T06:48:52;8.30;;;3.60;;
3293;SDS011;1659;51.470;6.770;2022-11-23T06:51:18;14.73;;;4.20;;
3293;SDS011;1659;51.470;6.770;2022-11-23T06:53:45;23.63;;;3.80;;
3293;SDS011;1659;51.470;6.770;2022-11-23T06:56:12;20.53;;;4.73;;
3293;SDS011;1659;51.470;6.770;2022-11-23T06:58:39;15.87;;;4.73;;
3293;SDS011;1659;51.470;6.770;2022-11-23T07:01:07;12.17;;;3.90;;
3293;SDS011;1659;51.470;6.770;2022-11-23T07:03:34;11.27;;;4.70;;
3293;SDS011;1659;51.470;6.770;2022-11-23T07:06:03;12.80;;;3.97;;
3293;SDS011;1659;51.470;6.770;2022-11-23T07:08:31;13.70;;;4.07;;
3293;SDS011;1659;51.470;6.770;2022-11-23T07:10:58;13.47;;;3.33;;
3293;SDS011;1659;51.470;6.770;2022-11-23T07:13:26;12.63;;;3.30;;
3293;SDS011;1659;51.470;6.770;2022-11-23T07:15:54;9.47;;;4.43;;
3293;SDS011;1659;51.470;6.770;2022-11-23T07:18:22;15.40;;;4.23;;
3293;SDS011;1659;51.470;6.770;2022-11-23T07:20:49;10.47;;;4.67;;
3293;SDS011;1659;51.470;6.770;2022-11-23T07:23:15;10.03;;;3.27;;
3293;SDS011;1659;51.470;6.770;2022-11-23T07:25:42;9.40;;;2.90;;
3293;SDS011;1659;51.470;6.770;2022-11-23T07:28:09;9.23;;;3.50;;
3293;SDS011;1659;51.470;6.770;2022-11-23T07:30:37;12.17;;;5.23;;
3293;SDS011;1659;51.470;6.770;2022-11-23T07:33:06;8.87;;;3.40;;
3293;SDS011;1659;51.470;6.770;2022-11-23T07:35:34;10.07;;;3.70;;
3293;SDS011;1659;51.470;6.770;2022-11-23T07:38:01;12.37;;;3.37;;
3293;SDS011;1659;51.470;6.770;2022-11-23T07:40:30;16.60;;;5.07;;
3293;SDS011;1659;51.470;6.770;2022-11-23T07:42:59;9.40;;;3.17;;
3293;SDS011;1659;51.470;6.770;2022-11-23T07:45:28;9.50;;;3.13;;
3293;SDS011;1659;51.470;6.770;2022-11-23T07:47:58;7.97;;;3.30;;
3293;SDS011;1659;51.470;6.770;2022-11-23T07:50:26;9.77;;;3.93;;
3293;SDS011;1659;51.470;6.770;2022-11-23T07:52:54;18.50;;;3.53;;
3293;SDS011;1659;51.470;6.770;2022-11-23T07:55:21;8.87;;;2.97;;
3293;SDS011;1659;51.470;6.770;2022-11-23T07:57:50;7.23;;;4.60;;
3293;SDS011;1659;51.470;6.770;2022-11-23T08:00:17;13.07;;;4.07;;
3293;SDS011;1659;51.470;6.770;2022-11-23T08:02:44;11.27;;;4.57;;
3293;SDS011;1659;51.470;6.770;2022-11-23T08:05:10;8.33;;;3.47;;
3293;SDS011;1659;51.470;6.770;2022-11-23T08:07:39;17.33;;;3.20;;
3293;SDS011;1659;51.470;6.770;2022-11-23T08:10:05;11.67;;;3.57;;
3293;SDS011;1659;51.470;6.770;2022-11-23T08:12:33;7.70;;;4.10;;
3293;SDS011;1659;51.470;6.770;2022-11-23T08:15:00;15.13;;;3.47;;
3293;SDS011;1659;51.470;6.770;2022-11-23T08:17:26;5.87;;;2.87;;
3293;SDS011;1659;51.470;6.770;2022-11-23T08:19:54;8.87;;;2.77;;
3293;SDS011;1659;51.470;6.770;2022-11-23T08:22:21;4.73;;;3.37;;
3293;SDS011;1659;51.470;6.770;2022-11-23T08:24:49;9.37;;;3.10;;
3293;SDS011;1659;51.470;6.770;2022-11-23T08:27:15;3.37;;;2.57;;
3293;SDS011;1659;51.470;6.770;2022-11-23T08:29:42;7.10;;;3.53;;
3293;SDS011;1659;51.470;6.770;2022-11-23T08:32:08;7.07;;;3.70;;
3293;SDS011;1659;51.470;6.770;2022-11-23T08:34:35;8.93;;;4.00;;
3293;SDS011;1659;51.470;6.770;2022-11-23T08:37:01;22.33;;;4.10;;
3293;SDS011;1659;51.470;6.770;2022-11-23T08:39:28;5.97;;;3.00;;
3293;SDS011;1659;51.470;6.770;2022-11-23T08:41:56;8.23;;;3.50;;
3293;SDS011;1659;51.470;6.770;2022-11-23T08:44:22;7.80;;;3.20;;
3293;SDS011;1659;51.470;6.770;2022-11-23T08:46:49;9.90;;;3.13;;
3293;SDS011;1659;51.470;6.770;2022-11-23T08:49:15;7.50;;;3.40;;
3293;SDS011;1659;51.470;6.770;2022-11-23T08:51:42;6.70;;;2.43;;
3293;SDS011;1659;51.470;6.770;2022-11-23T08:54:09;11.70;;;2.70;;
3293;SDS011;1659;51.470;6.770;2022-11-23T08:56:35;13.77;;;3.00;;
3293;SDS011;1659;51.470;6.770;2022-11-23T08:59:03;7.17;;;2.80;;
3293;SDS011;1659;51.470;6.770;2022-11-23T09:01:30;13.60;;;3.53;;
3293;SDS011;1659;51.470;6.770;2022-11-23T09:03:56;7.60;;;2.80;;
3293;SDS011;1659;51.470;6.770;2022-11-23T09:06:23;7.47;;;2.90;;
3293;SDS011;1659;51.470;6.770;2022-11-23T09:08:53;4.53;;;2.37;;
3293;SDS011;1659;51.470;6.770;2022-11-23T09:11:20;6.57;;;2.87;;
3293;SDS011;1659;51.470;6.770;2022-11-23T09:13:46;4.27;;;2.43;;
3293;SDS011;1659;51.470;6.770;2022-11-23T09:16:14;9.13;;;3.73;;
3293;SDS011;1659;51.470;6.770;2022-11-23T09:18:41;7.40;;;3.30;;
3293;SDS011;1659;51.470;6.770;2022-11-23T09:21:08;11.33;;;4.57;;
3293;SDS011;1659;51.470;6.770;2022-11-23T09:23:35;7.30;;;3.33;;
3293;SDS011;1659;51.470;6.770;2022-11-23T09:26:02;5.93;;;3.40;;
3293;SDS011;1659;51.470;6.770;2022-11-23T09:28:30;10.83;;;3.60;;
3293;SDS011;1659;51.470;6.770;2022-11-23T09:30:57;6.47;;;3.30;;
3293;SDS011;1659;51.470;6.770;2022-11-23T09:33:30;12.63;;;4.00;;
3293;SDS011;1659;51.470;6.770;2022-11-23T09:35:57;12.90;;;3.60;;
3293;SDS011;1659;51.470;6.770;2022-11-23T09:38:23;7.70;;;3.23;;
3293;SDS011;1659;51.470;6.770;2022-11-23T09:40:51;8.77;;;3.10;;
3293;SDS011;1659;51.470;6.770;2022-11-23T09:43:31;10.20;;;3.50;;
3293;SDS011;1659;51.470;6.770;2022-11-23T09:46:08;13.57;;;3.50;;
3293;SDS011;1659;51.470;6.770;2022-11-23T09:48:49;11.80;;;2.87;;
3293;SDS011;1659;51.470;6.770;2022-11-23T09:51:33;10.73;;;3.17;;
3293;SDS011;1659;51.470;6.770;2022-11-23T09:54:02;9.50;;;2.70;;
3293;SDS011;1659;51.470;6.770;2022-11-23T09:56:36;14.90;;;3.63;;
3293;SDS011;1659;51.470;6.770;2022-11-23T09:59:10;8.67;;;3.20;;
3293;SDS011;1659;51.470;6.770;2022-11-23T10:01:39;16.10;;;4.40;;
3293;SDS011;1659;51.470;6.770;2022-11-23T10:04:08;14.93;;;3.03;;
3293;SDS011;1659;51.470;6.770;2022-11-23T10:06:40;11.53;;;4.07;;
3293;SDS011;1659;51.470;6.770;2022-11-23T10:09:13;5.00;;;2.80;;
3293;SDS011;1659;51.470;6.770;2022-11-23T10:11:52;9.00;;;3.27;;
3293;SDS011;1659;51.470;6.770;2022-11-23T10:14:41;11.47;;;3.13;;
3293;SDS011;1659;51.470;6.770;2022-11-23T10:17:21;7.10;;;3.03;;
3293;SDS011;1659;51.470;6.770;2022-11-23T10:20:01;7.37;;;2.80;;
3293;SDS011;1659;51.470;6.770;2022-11-23T10:22:41;9.53;;;3.80;;
3293;SDS011;1659;51.470;6.770;2022-11-23T10:25:17;9.30;;;3.50;;
3293;SDS011;1659;51.470;6.770;2022-11-23T10:27:46;10.73;;;3.53;;
3293;SDS011;1659;51.470;6.770;2022-11-23T10:30:15;9.00;;;3.03;;
3293;SDS011;1659;51.470;6.770;2022-11-23T10:32:43;10.47;;;2.87;;
3293;SDS011;1659;51.470;6.770;2022-11-23T10:35:15;8.30;;;2.60;;
3293;SDS011;1659;51.470;6.770;2022-11-23T10:37:44;6.80;;;2.80;;
3293;SDS011;1659;51.470;6.770;2022-11-23T10:40:13;5.60;;;2.90;;
3293;SDS011;1659;51.470;6.770;2022-11-23T10:42:42;16.93;;;4.03;;
3293;SDS011;1659;51.470;6.770;2022-11-23T10:45:17;7.90;;;3.63;;
3293;SDS011;1659;51.470;6.770;2022-11-23T10:47:48;8.83;;;3.00;;
3293;SDS011;1659;51.470;6.770;2022-11-23T10:50:21;7.13;;;3.60;;
3293;SDS011;1659;51.470;6.770;2022-11-23T10:52:51;5.80;;;3.30;;
3293;SDS011;1659;51.470;6.770;2022-11-23T10:55:21;4.50;;;3.03;;
3293;SDS011;1659;51.470;6.770;2022-11-23T10:57:51;13.93;;;3.10;;
3293;SDS011;1659;51.470;6.770;2022-11-23T11:00:18;6.57;;;2.30;;
3293;SDS011;1659;51.470;6.770;2022-11-23T11:02:47;5.87;;;2.73;;
3293;SDS011;1659;51.470;6.770;2022-11-23T11:05:25;7.20;;;2.83;;
3293;SDS011;1659;51.470;6.770;2022-11-23T11:07:56;6.83;;;3.20;;
3293;SDS011;1659;51.470;6.770;2022-11-23T11:10:32;5.70;;;2.93;;
3293;SDS011;1659;51.470;6.770;2022-11-23T11:13:01;9.80;;;3.03;;
3293;SDS011;1659;51.470;6.770;2022-11-23T11:15:29;7.13;;;2.50;;
3293;SDS011;1659;51.470;6.770;2022-11-23T11:17:56;12.63;;;3.60;;
3293;SDS011;1659;51.470;6.770;2022-11-23T11:20:29;7.67;;;2.93;;
3293;SDS011;1659;51.470;6.770;2022-11-23T11:22:58;10.47;;;3.77;;
3293;SDS011;1659;51.470;6.770;2022-11-23T11:25:28;10.17;;;3.90;;
3293;SDS011;1659;51.470;6.770;2022-11-23T11:27:57;7.10;;;2.30;;
3293;SDS011;1659;51.470;6.770;2022-11-23T11:30:24;6.27;;;3.43;;
3293;SDS011;1659;51.470;6.770;2022-11-23T11:32:58;5.77;;;2.40;;
3293;SDS011;1659;51.470;6.770;2022-11-23T11:35:36;12.50;;;3.20;;
3293;SDS011;1659;51.470;6.770;2022-11-23T11:38:07;10.23;;;3.20;;
3293;SDS011;1659;51.470;6.770;2022-11-23T11:40:40;7.83;;;2.80;;
3293;SDS011;1659;51.470;6.770;2022-11-23T11:43:11;12.90;;;3.00;;
3293;SDS011;1659;51.470;6.770;2022-11-23T11:45:45;7.80;;;2.43;;
3293;SDS011;1659;51.470;6.770;2022-11-23T11:48:14;7.37;;;2.40;;
3293;SDS011;1659;51.470;6.770;2022-11-23T11:50:46;18.73;;;3.40;;
3293;SDS011;1659;51.470;6.770;2022-11-23T11:53:17;7.33;;;2.40;;
3293;SDS011;1659;51.470;6.770;2022-11-23T11:55:50;8.80;;;2.33;;
3293;SDS011;1659;51.470;6.770;2022-11-23T11:58:21;13.77;;;2.53;;
3293;SDS011;1659;51.470;6.770;2022-11-23T12:00:51;10.20;;;2.83;;
3293;SDS011;1659;51.470;6.770;2022-11-23T12:03:23;12.37;;;2.97;;
3293;SDS011;1659;51.470;6.770;2022-11-23T12:06:03;9.67;;;2.77;;
3293;SDS011;1659;51.470;6.770;2022-11-23T12:08:34;5.87;;;2.40;;
3293;SDS011;1659;51.470;6.770;2022-11-23T12:11:08;8.80;;;2.53;;
3293;SDS011;1659;51.470;6.770;2022-11-23T12:13:38;2.57;;;2.27;;
3293;SDS011;1659;51.470;6.770;2022-11-23T12:16:09;8.53;;;2.97;;
3293;SDS011;1659;51.470;6.770;2022-11-23T12:21:44;8.40;;;2.20;;
3293;SDS011;1659;51.470;6.770;2022-11-23T12:24:38;6.63;;;2.50;;
3293;SDS011;1659;51.470;6.770;2022-11-23T12:27:20;10.00;;;2.27;;
3293;SDS011;1659;51.470;6.770;2022-11-23T12:30:00;4.50;;;2.40;;
3293;SDS011;1659;51.470;6.770;2022-11-23T12:32:48;3.20;;;2.30;;
3293;SDS011;1659;51.470;6.770;2022-11-23T12:35:41;10.33;;;2.50;;
3293;SDS011;1659;51.470;6.770;2022-11-23T12:38:17;4.90;;;2.30;;
3293;SDS011;1659;51.470;6.770;2022-11-23T12:41:00;6.50;;;2.40;;
3293;SDS011;1659;51.470;6.770;2022-11-23T12:43:43;3.90;;;2.40;;
3293;SDS011;1659;51.470;6.770;2022-11-23T12:46:20;15.17;;;3.90;;
3293;SDS011;1659;51.470;6.770;2022-11-23T12:48:55;7.43;;;2.97;;
3293;SDS011;1659;51.470;6.770;2022-11-23T12:51:33;10.37;;;2.00;;
3293;SDS011;1659;51.470;6.770;2022-11-23T12:54:11;8.00;;;2.33;;
3293;SDS011;1659;51.470;6.770;2022-11-23T12:56:53;5.73;;;2.70;;
3293;SDS011;1659;51.470;6.770;2022-11-23T12:59:25;4.40;;;3.90;;
3293;SDS011;1659;51.470;6.770;2022-11-23T13:02:00;8.90;;;2.40;;
3293;SDS011;1659;51.470;6.770;2022-11-23T13:04:44;7.67;;;2.70;;
3293;SDS011;1659;51.470;6.770;2022-11-23T13:10:30;8.13;;;2.53;;
3293;SDS011;1659;51.470;6.770;2022-11-23T13:13:08;5.17;;;2.37;;
3293;SDS011;1659;51.470;6.770;2022-11-23T13:15:50;5.10;;;2.13;;
3293;SDS011;1659;51.470;6.770;2022-11-23T13:18:35;4.00;;;2.07;;
3293;SDS011;1659;51.470;6.770;2022-11-23T13:21:17;5.77;;;2.13;;
3293;SDS011;1659;51.470;6.770;2022-11-23T13:23:52;6.70;;;2.77;;
3293;SDS011;1659;51.470;6.770;2022-11-23T13:26:20;13.30;;;2.73;;
3293;SDS011;1659;51.470;6.770;2022-11-23T13:28:48;5.83;;;2.40;;
3293;SDS011;1659;51.470;6.770;2022-11-23T13:31:17;5.33;;;2.20;;
3293;SDS011;1659;51.470;6.770;2022-11-23T13:33:48;6.97;;;2.20;;
3293;SDS011;1659;51.470;6.770;2022-11-23T13:42:24;9.73;;;3.57;;
3293;SDS011;1659;51.470;6.770;2022-11-23T13:48:12;4.60;;;2.70;;
3293;SDS011;1659;51.470;6.770;2022-11-23T13:50:54;7.73;;;3.70;;
3293;SDS011;1659;51.470;6.770;2022-11-23T13:53:23;6.57;;;2.23;;
3293;SDS011;1659;51.470;6.770;2022-11-23T13:55:53;4.70;;;2.13;;
3293;SDS011;1659;51.470;6.770;2022-11-23T13:58:39;7.53;;;1.93;;
3293;SDS011;1659;51.470;6.770;2022-11-23T14:01:06;5.33;;;2.17;;
3293;SDS011;1659;51.470;6.770;2022-11-23T14:03:46;5.00;;;2.50;;
3293;SDS011;1659;51.470;6.770;2022-11-23T14:06:21;5.83;;;2.23;;
3293;SDS011;1659;51.470;6.770;2022-11-23T14:08:53;6.30;;;2.60;;
3293;SDS011;1659;51.470;6.770;2022-11-23T14:11:27;5.37;;;1.93;;
3293;SDS011;1659;51.470;6.770;2022-11-23T14:13:57;4.63;;;1.80;;
3293;SDS011;1659;51.470;6.770;2022-11-23T14:16:37;5.43;;;2.23;;
3293;SDS011;1659;51.470;6.770;2022-11-23T14:19:26;5.13;;;2.10;;
3293;SDS011;1659;51.470;6.770;2022-11-23T14:22:02;2.67;;;2.10;;
3293;SDS011;1659;51.470;6.770;2022-11-23T14:27:41;4.93;;;2.80;;
3293;SDS011;1659;51.470;6.770;2022-11-23T14:30:21;3.90;;;2.73;;
3293;SDS011;1659;51.470;6.770;2022-11-23T14:33:01;4.27;;;2.30;;
3293;SDS011;1659;51.470;6.770;2022-11-23T14:35:40;5.70;;;2.33;;
3293;SDS011;1659;51.470;6.770;2022-11-23T14:38:30;3.23;;;2.07;;
3293;SDS011;1659;51.470;6.770;2022-11-23T14:41:06;11.97;;;4.30;;
3293;SDS011;1659;51.470;6.770;2022-11-23T14:43:35;5.20;;;2.27;;
3293;SDS011;1659;51.470;6.770;2022-11-23T14:46:13;5.93;;;2.70;;
3293;SDS011;1659;51.470;6.770;2022-11-23T14:48:43;6.63;;;2.93;;
3293;SDS011;1659;51.470;6.770;2022-11-23T14:51:10;12.50;;;2.77;;
3293;SDS011;1659;51.470;6.770;2022-11-23T14:53:40;5.73;;;2.73;;
3293;SDS011;1659;51.470;6.770;2022-11-23T14:56:15;5.70;;;3.20;;
3293;SDS011;1659;51.470;6.770;2022-11-23T14:58:47;3.60;;;2.77;;
3293;SDS011;1659;51.470;6.770;2022-11-23T15:01:17;5.73;;;2.73;;
3293;SDS011;1659;51.470;6.770;2022-11-23T15:03:54;4.47;;;2.30;;
3293;SDS011;1659;51.470;6.770;2022-11-23T15:06:21;7.63;;;2.90;;
3293;SDS011;1659;51.470;6.770;2022-11-23T15:08:53;5.00;;;2.93;;
3293;SDS011;1659;51.470;6.770;2022-11-23T15:11:26;8.37;;;4.13;;
3293;SDS011;1659;51.470;6.770;2022-11-23T15:13:54;10.23;;;3.23;;
3293;SDS011;1659;51.470;6.770;2022-11-23T15:16:28;3.63;;;3.30;;
3293;SDS011;1659;51.470;6.770;2022-11-23T15:19:15;4.90;;;3.43;;
3293;SDS011;1659;51.470;6.770;2022-11-23T15:21:42;5.20;;;4.27;;
3293;SDS011;1659;51.470;6.770;2022-11-23T15:24:17;9.70;;;4.00;;
3293;SDS011;1659;51.470;6.770;2022-11-23T15:26:46;8.27;;;3.40;;
3293;SDS011;1659;51.470;6.770;2022-11-23T15:29:29;6.73;;;3.43;;
3293;SDS011;1659;51.470;6.770;2022-11-23T15:31:58;16.70;;;3.30;;
3293;SDS011;1659;51.470;6.770;2022-11-23T15:34:25;12.53;;;3.97;;
3293;SDS011;1659;51.470;6.770;2022-11-23T15:36:52;5.60;;;3.63;;
3293;SDS011;1659;51.470;6.770;2022-11-23T15:39:20;9.73;;;3.17;;
3293;SDS011;1659;51.470;6.770;2022-11-23T15:41:48;8.30;;;3.60;;
3293;SDS011;1659;51.470;6.770;2022-11-23T15:44:22;7.50;;;3.37;;